sensor_id;sensor_type;location;lat;lon;timestamp;temperature;humidity
44517;DHT22;30223;17.182;-96.766;2023-07-24T00:01:30;25.50;71.60
44517;DHT22;30223;17.182;-96.766;2023-07-24T00:03:57;25.50;71.80
44517;DHT22;30223;17.182;-96.766;2023-07-24T00:06:25;25.50;71.80
44517;DHT22;30223;17.182;-96.766;2023-07-24T00:08:51;25.40;71.60
44517;DHT22;30223;17.182;-96.766;2023-07-24T00:11:18;25.50;71.80
44517;DHT22;30223;17.182;-96.766;2023-07-24T00:13:45;25.40;71.70
44517;DHT22;30223;17.182;-96.766;2023-07-24T00:16:12;25.40;71.70
44517;DHT22;30223;17.182;-96.766;2023-07-24T00:18:39;25.40;71.40
44517;DHT22;30223;17.182;-96.766;2023-07-24T00:21:05;25.40;71.60
44517;DHT22;30223;17.182;-96.766;2023-07-24T00:23:32;25.40;71.60
44517;DHT22;30223;17.182;-96.766;2023-07-24T00:25:59;25.40;71.30
44517;DHT22;30223;17.182;-96.766;2023-07-24T00:28:25;25.40;71.20
44517;DHT22;30223;17.182;-96.766;2023-07-24T00:30:52;25.40;71.20
44517;DHT22;30223;17.182;-96.766;2023-07-24T00:33:19;25.40;71.20
44517;DHT22;30223;17.182;-96.766;2023-07-24T00:35:46;25.30;71.50
44517;DHT22;30223;17.182;-96.766;2023-07-24T00:38:12;25.40;71.20
44517;DHT22;30223;17.182;-96.766;2023-07-24T00:40:39;25.30;71.60
44517;DHT22;30223;17.182;-96.766;2023-07-24T00:43:06;25.30;71.30
44517;DHT22;30223;17.182;-96.766;2023-07-24T00:45:33;25.30;71.30
44517;DHT22;30223;17.182;-96.766;2023-07-24T00:48:00;25.30;71.40
44517;DHT22;30223;17.182;-96.766;2023-07-24T00:50:28;25.30;70.80
44517;DHT22;30223;17.182;-96.766;2023-07-24T00:52:55;25.30;71.30
44517;DHT22;30223;17.182;-96.766;2023-07-24T00:55:22;25.30;71.10
44517;DHT22;30223;17.182;-96.766;2023-07-24T00:57:50;25.30;71.50
44517;DHT22;30223;17.182;-96.766;2023-07-24T01:00:17;25.30;71.50
44517;DHT22;30223;17.182;-96.766;2023-07-24T01:02:44;25.30;71.40
44517;DHT22;30223;17.182;-96.766;2023-07-24T01:05:12;25.20;71.20
44517;DHT22;30223;17.182;-96.766;2023-07-24T01:07:40;25.20;71.10
44517;DHT22;30223;17.182;-96.766;2023-07-24T01:10:07;25.20;70.50
44517;DHT22;30223;17.182;-96.766;2023-07-24T01:15:32;25.20;71.10
44517;DHT22;30223;17.182;-96.766;2023-07-24T01:18:03;25.20;71.00
44517;DHT22;30223;17.182;-96.766;2023-07-24T01:20:35;25.20;71.30
44517;DHT22;30223;17.182;-96.766;2023-07-24T01:23:14;25.20;71.40
44517;DHT22;30223;17.182;-96.766;2023-07-24T01:25:57;25.20;71.30
44517;DHT22;30223;17.182;-96.766;2023-07-24T01:28:26;25.10;70.90
44517;DHT22;30223;17.182;-96.766;2023-07-24T01:30:53;25.10;71.00
44517;DHT22;30223;17.182;-96.766;2023-07-24T01:33:20;25.10;71.10
44517;DHT22;30223;17.182;-96.766;2023-07-24T01:35:54;25.10;71.00
44517;DHT22;30223;17.182;-96.766;2023-07-24T01:38:22;25.10;70.40
44517;DHT22;30223;17.182;-96.766;2023-07-24T01:40:50;25.10;70.50
44517;DHT22;30223;17.182;-96.766;2023-07-24T01:43:18;25.10;70.60
44517;DHT22;30223;17.182;-96.766;2023-07-24T01:45:45;25.10;70.50
44517;DHT22;30223;17.182;-96.766;2023-07-24T01:48:11;25.10;70.60
44517;DHT22;30223;17.182;-96.766;2023-07-24T01:50:38;25.10;70.60
44517;DHT22;30223;17.182;-96.766;2023-07-24T01:53:05;25.00;70.80
44517;DHT22;30223;17.182;-96.766;2023-07-24T01:55:31;25.00;71.20
44517;DHT22;30223;17.182;-96.766;2023-07-24T01:57:58;25.00;71.20
44517;DHT22;30223;17.182;-96.766;2023-07-24T02:00:25;25.00;71.10
44517;DHT22;30223;17.182;-96.766;2023-07-24T02:02:52;25.00;70.90
44517;DHT22;30223;17.182;-96.766;2023-07-24T02:05:18;25.00;71.10
44517;DHT22;30223;17.182;-96.766;2023-07-24T02:07:45;25.00;71.20
44517;DHT22;30223;17.182;-96.766;2023-07-24T02:10:12;25.00;71.10
44517;DHT22;30223;17.182;-96.766;2023-07-24T02:12:39;25.00;71.20
44517;DHT22;30223;17.182;-96.766;2023-07-24T02:15:06;24.90;71.00
44517;DHT22;30223;17.182;-96.766;2023-07-24T02:17:33;24.90;71.10
44517;DHT22;30223;17.182;-96.766;2023-07-24T02:20:00;24.90;70.60
44517;DHT22;30223;17.182;-96.766;2023-07-24T02:22:26;25.00;70.90
44517;DHT22;30223;17.182;-96.766;2023-07-24T02:24:53;24.90;70.50
44517;DHT22;30223;17.182;-96.766;2023-07-24T02:27:30;24.90;70.40
44517;DHT22;30223;17.182;-96.766;2023-07-24T02:29:58;24.90;70.40
44517;DHT22;30223;17.182;-96.766;2023-07-24T02:32:25;24.90;71.10
44517;DHT22;30223;17.182;-96.766;2023-07-24T02:34:52;24.90;71.10
44517;DHT22;30223;17.182;-96.766;2023-07-24T02:37:19;24.80;71.00
44517;DHT22;30223;17.182;-96.766;2023-07-24T02:39:46;24.90;71.20
44517;DHT22;30223;17.182;-96.766;2023-07-24T02:42:13;24.80;71.20
44517;DHT22;30223;17.182;-96.766;2023-07-24T02:44:40;24.80;71.20
44517;DHT22;30223;17.182;-96.766;2023-07-24T02:47:06;24.80;71.20
44517;DHT22;30223;17.182;-96.766;2023-07-24T02:49:33;24.80;71.70
44517;DHT22;30223;17.182;-96.766;2023-07-24T02:52:00;24.80;71.20
44517;DHT22;30223;17.182;-96.766;2023-07-24T02:54:27;24.80;71.10
44517;DHT22;30223;17.182;-96.766;2023-07-24T02:56:53;24.80;70.70
44517;DHT22;30223;17.182;-96.766;2023-07-24T02:59:20;24.80;70.90
44517;DHT22;30223;17.182;-96.766;2023-07-24T03:01:47;24.80;71.00
44517;DHT22;30223;17.182;-96.766;2023-07-24T03:04:13;24.70;71.10
44517;DHT22;30223;17.182;-96.766;2023-07-24T03:06:40;24.70;70.70
44517;DHT22;30223;17.182;-96.766;2023-07-24T03:09:07;24.70;71.10
44517;DHT22;30223;17.182;-96.766;2023-07-24T03:11:34;24.70;71.40
44517;DHT22;30223;17.182;-96.766;2023-07-24T03:14:01;24.70;71.30
44517;DHT22;30223;17.182;-96.766;2023-07-24T03:16:27;24.70;71.30
44517;DHT22;30223;17.182;-96.766;2023-07-24T03:18:54;24.70;71.30
44517;DHT22;30223;17.182;-96.766;2023-07-24T03:21:21;24.70;71.10
44517;DHT22;30223;17.182;-96.766;2023-07-24T03:23:48;24.70;71.30
44517;DHT22;30223;17.182;-96.766;2023-07-24T03:26:15;24.70;71.30
44517;DHT22;30223;17.182;-96.766;2023-07-24T03:28:41;24.60;71.20
44517;DHT22;30223;17.182;-96.766;2023-07-24T03:31:08;24.60;71.30
44517;DHT22;30223;17.182;-96.766;2023-07-24T03:33:35;24.60;72.00
44517;DHT22;30223;17.182;-96.766;2023-07-24T03:36:02;24.60;71.40
44517;DHT22;30223;17.182;-96.766;2023-07-24T03:38:29;24.60;71.30
44517;DHT22;30223;17.182;-96.766;2023-07-24T03:40:56;24.60;71.20
44517;DHT22;30223;17.182;-96.766;2023-07-24T03:43:23;24.60;71.30
44517;DHT22;30223;17.182;-96.766;2023-07-24T03:45:49;24.60;71.30
44517;DHT22;30223;17.182;-96.766;2023-07-24T03:48:16;24.60;71.40
44517;DHT22;30223;17.182;-96.766;2023-07-24T03:50:43;24.60;71.20
44517;DHT22;30223;17.182;-96.766;2023-07-24T03:53:10;24.60;71.20
44517;DHT22;30223;17.182;-96.766;2023-07-24T03:55:37;24.50;71.20
44517;DHT22;30223;17.182;-96.766;2023-07-24T03:58:04;24.60;71.20
44517;DHT22;30223;17.182;-96.766;2023-07-24T04:00:31;24.60;71.20
44517;DHT22;30223;17.182;-96.766;2023-07-24T04:02:57;24.50;71.20
44517;DHT22;30223;17.182;-96.766;2023-07-24T04:05:24;24.50;71.40
44517;DHT22;30223;17.182;-96.766;2023-07-24T04:07:52;24.50;71.40
44517;DHT22;30223;17.182;-96.766;2023-07-24T04:10:19;24.50;71.40
44517;DHT22;30223;17.182;-96.766;2023-07-24T04:12:45;24.50;71.40
44517;DHT22;30223;17.182;-96.766;2023-07-24T04:15:12;24.50;71.40
44517;DHT22;30223;17.182;-96.766;2023-07-24T04:17:39;24.50;71.80
44517;DHT22;30223;17.182;-96.766;2023-07-24T04:20:08;24.50;71.70
44517;DHT22;30223;17.182;-96.766;2023-07-24T04:22:35;24.50;71.80
44517;DHT22;30223;17.182;-96.766;2023-07-24T04:25:02;24.50;72.10
44517;DHT22;30223;17.182;-96.766;2023-07-24T04:27:29;24.60;72.30
44517;DHT22;30223;17.182;-96.766;2023-07-24T04:29:55;24.70;72.40
44517;DHT22;30223;17.182;-96.766;2023-07-24T04:32:22;24.70;72.60
44517;DHT22;30223;17.182;-96.766;2023-07-24T04:34:49;24.80;72.50
44517;DHT22;30223;17.182;-96.766;2023-07-24T04:37:16;24.80;72.60
44517;DHT22;30223;17.182;-96.766;2023-07-24T04:39:43;24.90;72.70
44517;DHT22;30223;17.182;-96.766;2023-07-24T04:42:10;25.00;72.80
44517;DHT22;30223;17.182;-96.766;2023-07-24T04:44:36;25.00;72.50
44517;DHT22;30223;17.182;-96.766;2023-07-24T04:47:03;25.00;72.70
44517;DHT22;30223;17.182;-96.766;2023-07-24T04:49:31;25.10;72.60
44517;DHT22;30223;17.182;-96.766;2023-07-24T04:52:01;25.10;72.30
44517;DHT22;30223;17.182;-96.766;2023-07-24T04:54:29;25.20;72.20
44517;DHT22;30223;17.182;-96.766;2023-07-24T04:56:55;25.20;72.00
44517;DHT22;30223;17.182;-96.766;2023-07-24T04:59:22;25.30;71.90
44517;DHT22;30223;17.182;-96.766;2023-07-24T05:01:50;25.30;71.90
44517;DHT22;30223;17.182;-96.766;2023-07-24T05:04:17;25.30;71.90
44517;DHT22;30223;17.182;-96.766;2023-07-24T05:06:43;25.30;71.90
44517;DHT22;30223;17.182;-96.766;2023-07-24T05:09:10;25.30;71.40
44517;DHT22;30223;17.182;-96.766;2023-07-24T05:11:37;25.30;71.30
44517;DHT22;30223;17.182;-96.766;2023-07-24T05:14:04;25.20;70.90
44517;DHT22;30223;17.182;-96.766;2023-07-24T05:16:30;25.20;70.70
44517;DHT22;30223;17.182;-96.766;2023-07-24T05:18:57;25.10;70.00
44517;DHT22;30223;17.182;-96.766;2023-07-24T05:21:24;25.10;70.60
44517;DHT22;30223;17.182;-96.766;2023-07-24T05:23:50;25.10;70.60
44517;DHT22;30223;17.182;-96.766;2023-07-24T05:26:17;25.00;70.40
44517;DHT22;30223;17.182;-96.766;2023-07-24T05:28:44;25.00;70.50
44517;DHT22;30223;17.182;-96.766;2023-07-24T05:31:11;25.00;69.90
44517;DHT22;30223;17.182;-96.766;2023-07-24T05:33:38;24.70;70.60
44517;DHT22;30223;17.182;-96.766;2023-07-24T05:36:05;24.90;70.50
44517;DHT22;30223;17.182;-96.766;2023-07-24T05:38:32;24.80;70.20
44517;DHT22;30223;17.182;-96.766;2023-07-24T05:41:00;24.80;71.40
44517;DHT22;30223;17.182;-96.766;2023-07-24T05:43:28;24.70;70.70
44517;DHT22;30223;17.182;-96.766;2023-07-24T05:45:56;24.70;70.70
44517;DHT22;30223;17.182;-96.766;2023-07-24T05:48:24;24.60;70.70
44517;DHT22;30223;17.182;-96.766;2023-07-24T05:50:51;24.60;70.90
44517;DHT22;30223;17.182;-96.766;2023-07-24T05:53:25;24.60;71.00
44517;DHT22;30223;17.182;-96.766;2023-07-24T05:55:58;24.60;71.10
44517;DHT22;30223;17.182;-96.766;2023-07-24T05:58:26;24.60;71.20
44517;DHT22;30223;17.182;-96.766;2023-07-24T06:00:53;24.50;71.30
44517;DHT22;30223;17.182;-96.766;2023-07-24T06:03:21;24.50;71.50
44517;DHT22;30223;17.182;-96.766;2023-07-24T06:05:54;24.50;71.70
44517;DHT22;30223;17.182;-96.766;2023-07-24T06:08:22;24.50;71.60
44517;DHT22;30223;17.182;-96.766;2023-07-24T06:10:50;24.50;71.50
44517;DHT22;30223;17.182;-96.766;2023-07-24T06:13:17;24.50;71.90
44517;DHT22;30223;17.182;-96.766;2023-07-24T06:15:44;24.40;72.00
44517;DHT22;30223;17.182;-96.766;2023-07-24T06:18:13;24.40;71.80
44517;DHT22;30223;17.182;-96.766;2023-07-24T06:20:39;24.40;71.90
44517;DHT22;30223;17.182;-96.766;2023-07-24T06:23:06;24.40;72.10
44517;DHT22;30223;17.182;-96.766;2023-07-24T06:25:33;24.40;72.00
44517;DHT22;30223;17.182;-96.766;2023-07-24T06:28:00;24.30;71.80
44517;DHT22;30223;17.182;-96.766;2023-07-24T06:30:27;24.30;72.00
44517;DHT22;30223;17.182;-96.766;2023-07-24T06:32:53;24.30;71.90
44517;DHT22;30223;17.182;-96.766;2023-07-24T06:35:20;24.30;72.00
44517;DHT22;30223;17.182;-96.766;2023-07-24T06:37:47;24.30;72.20
44517;DHT22;30223;17.182;-96.766;2023-07-24T06:40:14;24.30;72.30
44517;DHT22;30223;17.182;-96.766;2023-07-24T06:42:41;24.20;72.20
44517;DHT22;30223;17.182;-96.766;2023-07-24T06:45:08;24.20;72.30
44517;DHT22;30223;17.182;-96.766;2023-07-24T06:47:35;24.20;72.20
44517;DHT22;30223;17.182;-96.766;2023-07-24T06:50:01;24.20;72.20
44517;DHT22;30223;17.182;-96.766;2023-07-24T06:52:28;24.20;72.30
44517;DHT22;30223;17.182;-96.766;2023-07-24T06:54:55;24.20;72.20
44517;DHT22;30223;17.182;-96.766;2023-07-24T06:57:24;24.20;72.40
44517;DHT22;30223;17.182;-96.766;2023-07-24T06:59:51;24.20;72.50
44517;DHT22;30223;17.182;-96.766;2023-07-24T07:02:18;24.10;72.40
44517;DHT22;30223;17.182;-96.766;2023-07-24T07:04:44;24.10;72.20
44517;DHT22;30223;17.182;-96.766;2023-07-24T07:07:11;24.10;72.40
44517;DHT22;30223;17.182;-96.766;2023-07-24T07:09:38;24.10;72.40
44517;DHT22;30223;17.182;-96.766;2023-07-24T07:12:05;24.10;72.40
44517;DHT22;30223;17.182;-96.766;2023-07-24T07:14:32;24.10;72.30
44517;DHT22;30223;17.182;-96.766;2023-07-24T07:16:58;24.10;72.20
44517;DHT22;30223;17.182;-96.766;2023-07-24T07:19:25;24.10;72.10
44517;DHT22;30223;17.182;-96.766;2023-07-24T07:21:52;24.00;72.30
44517;DHT22;30223;17.182;-96.766;2023-07-24T07:24:19;24.00;72.40
44517;DHT22;30223;17.182;-96.766;2023-07-24T07:26:45;24.10;72.50
44517;DHT22;30223;17.182;-96.766;2023-07-24T07:29:12;24.00;72.50
44517;DHT22;30223;17.182;-96.766;2023-07-24T07:31:39;24.00;72.50
44517;DHT22;30223;17.182;-96.766;2023-07-24T07:34:05;24.00;72.50
44517;DHT22;30223;17.182;-96.766;2023-07-24T07:36:32;24.00;72.50
44517;DHT22;30223;17.182;-96.766;2023-07-24T07:38:59;24.00;72.40
44517;DHT22;30223;17.182;-96.766;2023-07-24T07:41:26;24.00;72.40
44517;DHT22;30223;17.182;-96.766;2023-07-24T07:43:52;24.00;72.40
44517;DHT22;30223;17.182;-96.766;2023-07-24T07:46:19;24.00;72.30
44517;DHT22;30223;17.182;-96.766;2023-07-24T07:48:46;23.90;72.30
44517;DHT22;30223;17.182;-96.766;2023-07-24T07:51:13;23.90;72.30
44517;DHT22;30223;17.182;-96.766;2023-07-24T07:53:40;23.90;72.30
44517;DHT22;30223;17.182;-96.766;2023-07-24T07:56:06;23.90;72.40
44517;DHT22;30223;17.182;-96.766;2023-07-24T07:58:34;23.90;71.80
44517;DHT22;30223;17.182;-96.766;2023-07-24T08:01:04;23.90;72.00
44517;DHT22;30223;17.182;-96.766;2023-07-24T08:03:31;23.90;72.00
44517;DHT22;30223;17.182;-96.766;2023-07-24T08:05:59;23.90;72.00
44517;DHT22;30223;17.182;-96.766;2023-07-24T08:08:26;23.90;72.40
44517;DHT22;30223;17.182;-96.766;2023-07-24T08:10:52;23.80;72.40
44517;DHT22;30223;17.182;-96.766;2023-07-24T08:13:20;23.80;72.40
44517;DHT22;30223;17.182;-96.766;2023-07-24T08:15:46;23.80;72.30
44517;DHT22;30223;17.182;-96.766;2023-07-24T08:18:13;23.80;72.40
44517;DHT22;30223;17.182;-96.766;2023-07-24T08:20:40;23.80;72.40
44517;DHT22;30223;17.182;-96.766;2023-07-24T08:23:07;23.80;72.40
44517;DHT22;30223;17.182;-96.766;2023-07-24T08:25:34;23.80;72.40
44517;DHT22;30223;17.182;-96.766;2023-07-24T08:28:00;23.90;72.40
44517;DHT22;30223;17.182;-96.766;2023-07-24T08:30:27;23.80;72.50
44517;DHT22;30223;17.182;-96.766;2023-07-24T08:32:55;23.80;72.40
44517;DHT22;30223;17.182;-96.766;2023-07-24T08:35:22;23.80;72.00
44517;DHT22;30223;17.182;-96.766;2023-07-24T08:37:49;23.80;72.00
44517;DHT22;30223;17.182;-96.766;2023-07-24T08:40:16;23.70;72.30
44517;DHT22;30223;17.182;-96.766;2023-07-24T08:42:43;23.70;72.20
44517;DHT22;30223;17.182;-96.766;2023-07-24T08:45:13;23.80;72.40
44517;DHT22;30223;17.182;-96.766;2023-07-24T08:47:45;23.80;72.40
44517;DHT22;30223;17.182;-96.766;2023-07-24T08:50:12;23.80;72.40
44517;DHT22;30223;17.182;-96.766;2023-07-24T08:52:40;23.70;72.40
44517;DHT22;30223;17.182;-96.766;2023-07-24T08:55:08;23.70;72.50
44517;DHT22;30223;17.182;-96.766;2023-07-24T08:57:35;23.70;72.50
44517;DHT22;30223;17.182;-96.766;2023-07-24T09:00:03;23.60;72.50
44517;DHT22;30223;17.182;-96.766;2023-07-24T09:02:35;23.70;72.70
44517;DHT22;30223;17.182;-96.766;2023-07-24T09:05:02;23.60;72.70
44517;DHT22;30223;17.182;-96.766;2023-07-24T09:07:30;23.60;72.80
44517;DHT22;30223;17.182;-96.766;2023-07-24T09:09:57;23.60;72.80
44517;DHT22;30223;17.182;-96.766;2023-07-24T09:12:24;23.60;72.90
44517;DHT22;30223;17.182;-96.766;2023-07-24T09:15:03;23.50;72.80
44517;DHT22;30223;17.182;-96.766;2023-07-24T09:17:30;23.50;72.80
44517;DHT22;30223;17.182;-96.766;2023-07-24T09:19:57;23.50;72.80
44517;DHT22;30223;17.182;-96.766;2023-07-24T09:22:24;23.50;72.90
44517;DHT22;30223;17.182;-96.766;2023-07-24T09:24:57;23.50;72.80
44517;DHT22;30223;17.182;-96.766;2023-07-24T09:27:30;23.50;72.80
44517;DHT22;30223;17.182;-96.766;2023-07-24T09:29:57;23.50;72.80
44517;DHT22;30223;17.182;-96.766;2023-07-24T09:32:26;23.50;72.80
44517;DHT22;30223;17.182;-96.766;2023-07-24T09:34:53;23.50;72.90
44517;DHT22;30223;17.182;-96.766;2023-07-24T09:37:27;23.50;73.00
44517;DHT22;30223;17.182;-96.766;2023-07-24T09:39:54;23.50;73.00
44517;DHT22;30223;17.182;-96.766;2023-07-24T09:42:35;23.50;72.50
44517;DHT22;30223;17.182;-96.766;2023-07-24T09:45:02;23.50;72.80
44517;DHT22;30223;17.182;-96.766;2023-07-24T09:47:30;23.40;72.90
44517;DHT22;30223;17.182;-96.766;2023-07-24T09:49:57;23.40;72.90
44517;DHT22;30223;17.182;-96.766;2023-07-24T09:52:27;23.40;73.00
44517;DHT22;30223;17.182;-96.766;2023-07-24T09:57:28;23.40;73.00
44517;DHT22;30223;17.182;-96.766;2023-07-24T09:59:57;23.40;72.90
44517;DHT22;30223;17.182;-96.766;2023-07-24T10:02:24;23.40;73.60
44517;DHT22;30223;17.182;-96.766;2023-07-24T10:04:51;23.40;72.80
44517;DHT22;30223;17.182;-96.766;2023-07-24T10:07:18;23.40;72.90
44517;DHT22;30223;17.182;-96.766;2023-07-24T10:09:49;23.40;73.00
44517;DHT22;30223;17.182;-96.766;2023-07-24T10:12:18;23.40;73.00
44517;DHT22;30223;17.182;-96.766;2023-07-24T10:14:46;23.40;73.00
44517;DHT22;30223;17.182;-96.766;2023-07-24T10:17:14;23.40;73.00
44517;DHT22;30223;17.182;-96.766;2023-07-24T10:19:43;23.40;72.90
44517;DHT22;30223;17.182;-96.766;2023-07-24T10:22:17;23.40;73.00
44517;DHT22;30223;17.182;-96.766;2023-07-24T10:24:47;23.30;73.00
44517;DHT22;30223;17.182;-96.766;2023-07-24T10:27:14;23.30;73.10
44517;DHT22;30223;17.182;-96.766;2023-07-24T10:29:41;23.30;73.00
44517;DHT22;30223;17.182;-96.766;2023-07-24T10:32:18;23.30;73.00
44517;DHT22;30223;17.182;-96.766;2023-07-24T10:34:45;23.30;73.00
44517;DHT22;30223;17.182;-96.766;2023-07-24T10:37:11;23.30;73.10
44517;DHT22;30223;17.182;-96.766;2023-07-24T10:39:39;23.30;73.00
44517;DHT22;30223;17.182;-96.766;2023-07-24T10:42:10;23.30;73.20
44517;DHT22;30223;17.182;-96.766;2023-07-24T10:44:38;23.30;73.10
44517;DHT22;30223;17.182;-96.766;2023-07-24T10:47:05;23.30;73.00
44517;DHT22;30223;17.182;-96.766;2023-07-24T10:49:32;23.30;73.00
44517;DHT22;30223;17.182;-96.766;2023-07-24T10:51:59;23.30;73.00
44517;DHT22;30223;17.182;-96.766;2023-07-24T10:54:26;23.30;73.00
44517;DHT22;30223;17.182;-96.766;2023-07-24T10:56:59;23.30;73.00
44517;DHT22;30223;17.182;-96.766;2023-07-24T10:59:39;23.30;73.10
44517;DHT22;30223;17.182;-96.766;2023-07-24T11:02:07;23.30;73.00
44517;DHT22;30223;17.182;-96.766;2023-07-24T11:04:34;23.30;73.00
44517;DHT22;30223;17.182;-96.766;2023-07-24T11:07:01;23.20;73.00
44517;DHT22;30223;17.182;-96.766;2023-07-24T11:09:36;23.20;73.00
44517;DHT22;30223;17.182;-96.766;2023-07-24T11:12:13;23.20;73.00
44517;DHT22;30223;17.182;-96.766;2023-07-24T11:14:51;23.20;73.00
44517;DHT22;30223;17.182;-96.766;2023-07-24T11:17:21;23.20;73.10
44517;DHT22;30223;17.182;-96.766;2023-07-24T11:19:48;23.20;73.10
44517;DHT22;30223;17.182;-96.766;2023-07-24T11:22:15;23.20;73.20
44517;DHT22;30223;17.182;-96.766;2023-07-24T11:24:48;23.20;73.20
44517;DHT22;30223;17.182;-96.766;2023-07-24T11:27:16;23.20;73.20
44517;DHT22;30223;17.182;-96.766;2023-07-24T11:29:48;23.20;73.20
44517;DHT22;30223;17.182;-96.766;2023-07-24T11:32:21;23.20;73.20
44517;DHT22;30223;17.182;-96.766;2023-07-24T11:34:51;23.20;73.20
44517;DHT22;30223;17.182;-96.766;2023-07-24T11:37:19;23.20;73.10
44517;DHT22;30223;17.182;-96.766;2023-07-24T11:40:04;23.20;73.10
44517;DHT22;30223;17.182;-96.766;2023-07-24T11:42:43;23.10;73.00
44517;DHT22;30223;17.182;-96.766;2023-07-24T11:45:11;23.20;73.10
44517;DHT22;30223;17.182;-96.766;2023-07-24T11:47:47;23.20;73.30
44517;DHT22;30223;17.182;-96.766;2023-07-24T11:50:15;23.10;73.20
44517;DHT22;30223;17.182;-96.766;2023-07-24T11:52:44;23.10;73.10
44517;DHT22;30223;17.182;-96.766;2023-07-24T11:55:17;23.10;73.10
44517;DHT22;30223;17.182;-96.766;2023-07-24T11:57:56;23.10;73.20
44517;DHT22;30223;17.182;-96.766;2023-07-24T12:00:23;23.10;73.00
44517;DHT22;30223;17.182;-96.766;2023-07-24T12:02:50;23.10;73.20
44517;DHT22;30223;17.182;-96.766;2023-07-24T12:05:17;23.10;73.10
44517;DHT22;30223;17.182;-96.766;2023-07-24T12:07:45;23.10;73.10
44517;DHT22;30223;17.182;-96.766;2023-07-24T12:10:13;23.10;73.10
44517;DHT22;30223;17.182;-96.766;2023-07-24T12:12:43;23.10;73.10
44517;DHT22;30223;17.182;-96.766;2023-07-24T12:15:11;23.10;73.10
44517;DHT22;30223;17.182;-96.766;2023-07-24T12:17:38;23.10;73.00
44517;DHT22;30223;17.182;-96.766;2023-07-24T12:20:06;23.10;73.00
44517;DHT22;30223;17.182;-96.766;2023-07-24T12:22:38;23.10;73.10
44517;DHT22;30223;17.182;-96.766;2023-07-24T12:25:05;23.10;73.00
44517;DHT22;30223;17.182;-96.766;2023-07-24T12:27:33;23.10;73.10
44517;DHT22;30223;17.182;-96.766;2023-07-24T12:30:00;23.00;73.10
44517;DHT22;30223;17.182;-96.766;2023-07-24T12:32:27;23.00;73.00
44517;DHT22;30223;17.182;-96.766;2023-07-24T12:34:54;23.10;73.00
44517;DHT22;30223;17.182;-96.766;2023-07-24T12:37:21;23.00;73.00
44517;DHT22;30223;17.182;-96.766;2023-07-24T12:39:48;23.00;73.00
44517;DHT22;30223;17.182;-96.766;2023-07-24T12:42:16;23.00;73.00
44517;DHT22;30223;17.182;-96.766;2023-07-24T12:44:43;23.00;72.80
44517;DHT22;30223;17.182;-96.766;2023-07-24T12:47:11;23.00;73.10
44517;DHT22;30223;17.182;-96.766;2023-07-24T12:49:38;23.00;73.10
44517;DHT22;30223;17.182;-96.766;2023-07-24T12:52:05;23.00;73.20
44517;DHT22;30223;17.182;-96.766;2023-07-24T12:54:34;23.00;73.20
44517;DHT22;30223;17.182;-96.766;2023-07-24T12:57:02;23.00;73.10
44517;DHT22;30223;17.182;-96.766;2023-07-24T12:59:29;23.00;73.10
44517;DHT22;30223;17.182;-96.766;2023-07-24T13:01:56;23.00;73.00
44517;DHT22;30223;17.182;-96.766;2023-07-24T13:04:23;23.00;73.10
44517;DHT22;30223;17.182;-96.766;2023-07-24T13:06:50;23.00;73.10
44517;DHT22;30223;17.182;-96.766;2023-07-24T13:09:19;23.00;73.10
44517;DHT22;30223;17.182;-96.766;2023-07-24T13:11:46;23.00;73.10
44517;DHT22;30223;17.182;-96.766;2023-07-24T13:14:15;22.90;73.20
44517;DHT22;30223;17.182;-96.766;2023-07-24T13:16:42;23.00;73.20
44517;DHT22;30223;17.182;-96.766;2023-07-24T13:19:08;22.90;73.10
44517;DHT22;30223;17.182;-96.766;2023-07-24T13:21:35;22.90;73.20
44517;DHT22;30223;17.182;-96.766;2023-07-24T13:24:02;23.00;73.20
44517;DHT22;30223;17.182;-96.766;2023-07-24T13:26:29;22.90;73.20
44517;DHT22;30223;17.182;-96.766;2023-07-24T13:28:56;22.90;73.20
44517;DHT22;30223;17.182;-96.766;2023-07-24T13:31:22;22.90;73.20
44517;DHT22;30223;17.182;-96.766;2023-07-24T13:33:49;22.90;73.20
44517;DHT22;30223;17.182;-96.766;2023-07-24T13:36:16;22.90;73.20
44517;DHT22;30223;17.182;-96.766;2023-07-24T13:38:43;22.90;73.10
44517;DHT22;30223;17.182;-96.766;2023-07-24T13:41:09;22.90;73.10
44517;DHT22;30223;17.182;-96.766;2023-07-24T13:43:36;22.90;73.00
44517;DHT22;30223;17.182;-96.766;2023-07-24T13:46:03;22.90;73.10
44517;DHT22;30223;17.182;-96.766;2023-07-24T13:48:30;22.90;73.70
44517;DHT22;30223;17.182;-96.766;2023-07-24T13:50:57;22.90;73.10
44517;DHT22;30223;17.182;-96.766;2023-07-24T13:53:24;22.90;73.10
44517;DHT22;30223;17.182;-96.766;2023-07-24T13:55:51;22.90;73.10
44517;DHT22;30223;17.182;-96.766;2023-07-24T13:58:18;22.90;73.10
44517;DHT22;30223;17.182;-96.766;2023-07-24T14:00:44;22.90;73.70
44517;DHT22;30223;17.182;-96.766;2023-07-24T14:03:11;22.90;73.10
44517;DHT22;30223;17.182;-96.766;2023-07-24T14:05:38;22.90;73.10
44517;DHT22;30223;17.182;-96.766;2023-07-24T14:08:06;22.90;73.20
44517;DHT22;30223;17.182;-96.766;2023-07-24T14:10:33;22.90;73.10
44517;DHT22;30223;17.182;-96.766;2023-07-24T14:13:00;22.90;73.10
44517;DHT22;30223;17.182;-96.766;2023-07-24T14:15:27;22.90;73.10
44517;DHT22;30223;17.182;-96.766;2023-07-24T14:17:54;22.90;73.10
44517;DHT22;30223;17.182;-96.766;2023-07-24T14:20:21;22.90;73.10
44517;DHT22;30223;17.182;-96.766;2023-07-24T14:22:48;22.90;73.10
44517;DHT22;30223;17.182;-96.766;2023-07-24T14:25:15;22.90;73.20
44517;DHT22;30223;17.182;-96.766;2023-07-24T14:27:41;22.90;73.10
44517;DHT22;30223;17.182;-96.766;2023-07-24T14:30:09;22.90;73.10
44517;DHT22;30223;17.182;-96.766;2023-07-24T14:32:36;22.90;73.20
44517;DHT22;30223;17.182;-96.766;2023-07-24T14:35:03;22.90;73.20
44517;DHT22;30223;17.182;-96.766;2023-07-24T14:37:30;22.90;73.20
44517;DHT22;30223;17.182;-96.766;2023-07-24T14:39:57;22.90;73.10
44517;DHT22;30223;17.182;-96.766;2023-07-24T14:42:24;22.90;73.10
44517;DHT22;30223;17.182;-96.766;2023-07-24T14:44:51;22.90;73.20
44517;DHT22;30223;17.182;-96.766;2023-07-24T14:47:17;22.90;73.20
44517;DHT22;30223;17.182;-96.766;2023-07-24T14:49:44;22.90;73.20
44517;DHT22;30223;17.182;-96.766;2023-07-24T14:52:11;22.90;73.10
44517;DHT22;30223;17.182;-96.766;2023-07-24T14:54:37;22.90;73.10
44517;DHT22;30223;17.182;-96.766;2023-07-24T14:57:05;22.90;73.00
44517;DHT22;30223;17.182;-96.766;2023-07-24T14:59:32;22.90;73.10
44517;DHT22;30223;17.182;-96.766;2023-07-24T15:01:59;22.90;73.20
44517;DHT22;30223;17.182;-96.766;2023-07-24T15:04:25;22.90;73.20
44517;DHT22;30223;17.182;-96.766;2023-07-24T15:06:52;22.90;73.50
44517;DHT22;30223;17.182;-96.766;2023-07-24T15:09:19;22.90;73.70
44517;DHT22;30223;17.182;-96.766;2023-07-24T15:11:45;22.90;73.70